Terminal Aerodrome Forecast
Issued by NWS

Home | Current Version | Previous Version | Text Only | Print | Product List | Glossary On
Versions: 1 2 3 4 5 6 7 8 9 10 11 12 13
000
FTUS46 KPDT 292025 AAA
TAFBDN
TAF AMD
KBDN 292025Z 2920/3018 33006KT P6SM BKN100
     FM292200 32008KT P6SM VCTS SCT070CB BKN100
     FM300500 VRB04KT P6SM FEW080 SCT100=

USA.gov is the U.S. government's official web portal to all federal, state and local government web resources and services.